createdAt,value
2023-02-03T00:01:20.482Z,2.80
2023-02-03T00:03:48.666Z,0.85
2023-02-03T00:06:16.698Z,1.12
2023-02-03T00:08:44.683Z,0.95
2023-02-03T00:11:13.427Z,1.70
2023-02-03T00:13:42.677Z,3.33
2023-02-03T00:16:10.814Z,0.82
2023-02-03T00:18:39.256Z,2.42
2023-02-03T00:21:07.307Z,1.08
2023-02-03T00:23:35.446Z,6.55
2023-02-03T00:26:08.831Z,4.78
2023-02-03T00:28:37.791Z,3.78
2023-02-03T00:31:07.931Z,3.03
2023-02-03T00:33:35.939Z,3.15
2023-02-03T00:36:06.525Z,1.25
2023-02-03T00:38:34.823Z,0.60
2023-02-03T00:41:02.876Z,1.77
2023-02-03T00:43:31.060Z,0.95
2023-02-03T00:45:59.411Z,0.40
2023-02-03T00:48:28.759Z,1.05
2023-02-03T00:50:56.856Z,1.52
2023-02-03T00:53:26.676Z,1.62
2023-02-03T00:55:54.739Z,1.65
2023-02-03T00:58:23.641Z,3.08
2023-02-03T01:00:52.192Z,2.35
2023-02-03T01:03:20.235Z,0.30
2023-02-03T01:05:49.585Z,0.32
2023-02-03T01:08:17.771Z,1.23
2023-02-03T01:10:46.142Z,0.52
2023-02-03T01:13:14.174Z,0.73
2023-02-03T01:15:47.819Z,0.70
2023-02-03T01:18:16.035Z,0.45
2023-02-03T01:20:45.622Z,3.17
2023-02-03T01:23:15.037Z,0.43
2023-02-03T01:25:43.125Z,2.28
2023-02-03T01:28:11.444Z,2.40
2023-02-03T01:30:39.622Z,0.47
2023-02-03T01:33:07.683Z,1.75
2023-02-03T01:35:36.270Z,0.95
2023-02-03T01:38:04.210Z,0.82
2023-02-03T01:40:34.216Z,1.90
2023-02-03T01:43:04.423Z,1.75
2023-02-03T01:45:32.545Z,1.10
2023-02-03T01:48:01.081Z,3.40
2023-02-03T01:50:33.425Z,1.45
2023-02-03T01:53:03.870Z,1.95
2023-02-03T01:55:37.031Z,1.35
2023-02-03T01:58:10.949Z,1.50
2023-02-03T02:00:39.335Z,2.53
2023-02-03T02:03:09.463Z,1.80
2023-02-03T02:05:47.065Z,1.58
2023-02-03T02:08:18.221Z,1.25
2023-02-03T02:10:48.033Z,1.60
2023-02-03T02:13:18.266Z,1.62
2023-02-03T02:15:55.556Z,1.65
2023-02-03T02:18:40.248Z,1.83
2023-02-03T02:21:41.377Z,3.20
2023-02-03T02:24:27.778Z,2.12
2023-02-03T02:27:04.250Z,1.25
2023-02-03T02:30:08.866Z,1.67
2023-02-03T02:32:49.770Z,3.00
2023-02-03T02:35:29.187Z,2.08
2023-02-03T02:38:06.361Z,1.98
2023-02-03T02:40:38.847Z,2.15
2023-02-03T02:43:11.505Z,3.83
2023-02-03T02:45:46.935Z,2.62
2023-02-03T02:48:24.267Z,3.17
2023-02-03T02:50:57.090Z,3.65
2023-02-03T02:53:29.923Z,4.82
2023-02-03T02:55:59.687Z,3.92
2023-02-03T02:58:29.849Z,3.10
2023-02-03T03:00:57.842Z,2.62
2023-02-03T03:03:27.334Z,3.58
2023-02-03T03:05:58.891Z,2.55
2023-02-03T03:08:33.772Z,3.58
2023-02-03T03:11:03.347Z,4.90
2023-02-03T03:13:36.354Z,4.55
2023-02-03T03:16:08.733Z,4.43
2023-02-03T03:18:43.653Z,3.53
2023-02-03T03:21:17.272Z,3.78
2023-02-03T03:23:51.202Z,4.28
2023-02-03T03:26:27.932Z,5.85
2023-02-03T03:29:03.548Z,4.47
2023-02-03T03:31:32.195Z,4.62
2023-02-03T03:34:01.822Z,5.60
2023-02-03T03:36:33.202Z,6.05
2023-02-03T03:39:08.054Z,5.05
2023-02-03T03:41:42.593Z,5.72
2023-02-03T03:44:15.272Z,5.60
2023-02-03T03:46:49.881Z,4.95
2023-02-03T03:49:22.897Z,5.50
2023-02-03T03:51:57.323Z,7.00
2023-02-03T03:54:27.250Z,8.75
2023-02-03T03:57:00.633Z,5.60
2023-02-03T03:59:32.891Z,5.18
2023-02-03T04:02:04.558Z,6.00
2023-02-03T04:04:37.554Z,6.07
2023-02-03T04:07:05.680Z,6.55
2023-02-03T04:09:36.639Z,6.50
2023-02-03T04:12:06.317Z,8.63
2023-02-03T04:14:38.774Z,3.90
2023-02-03T04:17:07.656Z,5.65
2023-02-03T04:19:37.283Z,6.87
2023-02-03T04:22:06.972Z,5.75
2023-02-03T04:24:35.899Z,8.00
2023-02-03T04:27:08.280Z,6.90
2023-02-03T04:29:36.619Z,5.70
2023-02-03T04:32:04.889Z,6.68
2023-02-03T04:34:33.032Z,6.72
2023-02-03T04:37:02.799Z,6.35
2023-02-03T04:39:30.768Z,6.50
2023-02-03T04:41:58.646Z,8.13
2023-02-03T04:44:26.917Z,5.40
2023-02-03T04:46:54.905Z,6.12
2023-02-03T04:49:23.308Z,6.10
2023-02-03T04:51:54.787Z,5.55
2023-02-03T04:54:24.083Z,5.93
2023-02-03T04:59:20.633Z,7.22
2023-02-03T05:01:48.612Z,8.10
2023-02-03T05:04:17.209Z,9.63
2023-02-03T05:06:45.700Z,7.47
2023-02-03T05:09:13.679Z,7.90
2023-02-03T05:11:43.186Z,6.22
2023-02-03T05:14:11.225Z,7.57
2023-02-03T05:16:39.305Z,7.12
2023-02-03T05:19:08.738Z,8.38
2023-02-03T05:21:36.676Z,6.25
2023-02-03T05:24:07.820Z,8.10
2023-02-03T05:26:36.921Z,5.35
2023-02-03T05:29:06.376Z,6.85
2023-02-03T05:31:34.890Z,6.53
2023-02-03T05:34:03.231Z,8.30
2023-02-03T05:36:31.272Z,9.40
2023-02-03T05:38:59.947Z,6.00
2023-02-03T05:41:45.800Z,6.22
2023-02-03T05:44:15.095Z,7.40
2023-02-03T05:46:43.326Z,8.45
2023-02-03T05:49:11.309Z,6.93
2023-02-03T05:51:40.065Z,8.10
2023-02-03T05:54:09.198Z,6.35
2023-02-03T05:56:37.123Z,6.75
2023-02-03T05:59:05.660Z,6.72
2023-02-03T06:01:35.796Z,8.35
2023-02-03T06:04:05.083Z,6.43
2023-02-03T06:06:34.326Z,6.50
2023-02-03T06:09:03.522Z,5.93
2023-02-03T06:11:32.420Z,6.62
2023-02-03T06:14:01.114Z,4.75
2023-02-03T06:16:30.318Z,4.30
2023-02-03T06:19:01.065Z,5.47
2023-02-03T06:21:29.588Z,7.00
2023-02-03T06:23:57.599Z,5.62
2023-02-03T06:26:26.389Z,6.07
2023-02-03T06:28:54.364Z,5.20
2023-02-03T06:31:22.654Z,4.53
2023-02-03T06:33:51.049Z,7.72
2023-02-03T06:36:20.327Z,6.40
2023-02-03T06:38:48.308Z,6.25
2023-02-03T06:41:16.706Z,5.03
2023-02-03T06:43:44.776Z,4.70
2023-02-03T06:46:12.881Z,4.18
2023-02-03T06:48:41.087Z,4.47
2023-02-03T06:51:08.992Z,4.28
2023-02-03T06:53:38.239Z,6.55
2023-02-03T06:56:07.088Z,4.90
2023-02-03T06:58:35.060Z,4.12
2023-02-03T07:01:03.054Z,6.25
2023-02-03T07:03:31.371Z,5.82
2023-02-03T07:05:59.333Z,6.03
2023-02-03T07:08:27.307Z,4.22
2023-02-03T07:10:57.106Z,5.45
2023-02-03T07:13:25.106Z,7.90
2023-02-03T07:15:53.323Z,7.55
2023-02-03T07:18:45.769Z,5.72
2023-02-03T07:21:12.871Z,4.97
2023-02-03T07:23:41.459Z,7.75
2023-02-03T07:26:11.993Z,5.62
2023-02-03T07:28:40.288Z,5.53
2023-02-03T07:31:10.384Z,4.68
2023-02-03T07:33:39.470Z,8.82
2023-02-03T07:36:09.146Z,5.72
2023-02-03T07:38:38.132Z,4.50
2023-02-03T07:41:07.676Z,5.70
2023-02-03T07:43:37.293Z,5.40
2023-02-03T07:46:05.760Z,6.28
2023-02-03T07:48:33.904Z,8.27
2023-02-03T07:51:02.283Z,3.87
2023-02-03T07:53:30.309Z,6.85
2023-02-03T07:56:00.854Z,4.37
2023-02-03T07:58:29.308Z,6.72
2023-02-03T08:00:59.631Z,5.32
2023-02-03T08:03:28.105Z,5.20
2023-02-03T08:05:56.118Z,3.72
2023-02-03T08:08:24.072Z,4.80
2023-02-03T08:10:52.485Z,4.68
2023-02-03T08:13:20.456Z,4.68
2023-02-03T08:15:48.897Z,4.00
2023-02-03T08:18:19.505Z,9.80
2023-02-03T08:20:48.199Z,5.60
2023-02-03T08:23:16.253Z,8.27
2023-02-03T08:25:44.657Z,8.57
2023-02-03T08:28:12.704Z,8.27
2023-02-03T08:30:40.795Z,6.90
2023-02-03T08:33:09.081Z,5.22
2023-02-03T08:35:39.112Z,4.30
2023-02-03T08:38:07.571Z,7.95
2023-02-03T08:40:35.872Z,6.65
2023-02-03T08:43:03.923Z,4.90
2023-02-03T08:45:32.042Z,4.82
2023-02-03T08:48:00.283Z,3.50
2023-02-03T08:50:28.657Z,4.35
2023-02-03T08:52:58.067Z,3.78
2023-02-03T08:55:26.659Z,3.55
2023-02-03T08:57:54.742Z,3.22
2023-02-03T09:00:23.462Z,3.00
2023-02-03T09:02:51.933Z,5.03
2023-02-03T09:05:20.055Z,6.43
2023-02-03T09:07:48.653Z,2.62
2023-02-03T09:10:18.504Z,2.55
2023-02-03T09:12:46.411Z,3.08
2023-02-03T09:15:14.395Z,3.12
2023-02-03T09:17:42.630Z,2.65
2023-02-03T09:20:13.424Z,2.83
2023-02-03T09:22:41.644Z,3.95
2023-02-03T09:25:10.104Z,3.22
2023-02-03T09:27:39.489Z,3.40
2023-02-03T09:30:08.582Z,2.12
2023-02-03T09:32:36.863Z,2.03
2023-02-03T09:35:05.132Z,1.92
2023-02-03T09:37:33.218Z,2.30
2023-02-03T09:40:01.693Z,6.37
2023-02-03T09:42:51.107Z,8.52
2023-02-03T09:45:25.179Z,2.17
2023-02-03T09:47:55.508Z,2.30
2023-02-03T09:50:26.107Z,3.67
2023-02-03T09:52:54.601Z,2.08
2023-02-03T09:55:30.465Z,2.22
2023-02-03T09:58:06.480Z,3.00
2023-02-03T10:00:37.809Z,1.67
2023-02-03T10:03:10.342Z,4.10
2023-02-03T10:05:50.809Z,7.45
2023-02-03T10:08:29.436Z,2.28
2023-02-03T10:11:13.385Z,2.85
2023-02-03T10:13:53.981Z,1.30
2023-02-03T10:16:39.703Z,1.30
2023-02-03T10:19:14.129Z,0.90
2023-02-03T10:21:45.916Z,0.90
2023-02-03T10:24:19.999Z,1.05
2023-02-03T10:26:48.085Z,3.15
2023-02-03T10:29:25.870Z,1.55
2023-02-03T10:31:58.571Z,0.93
2023-02-03T10:34:27.616Z,2.40
2023-02-03T10:36:57.981Z,0.62
2023-02-03T10:39:33.117Z,1.12
2023-02-03T10:42:03.187Z,0.80
2023-02-03T10:44:39.626Z,0.73
2023-02-03T10:47:24.420Z,1.95
2023-02-03T10:49:55.072Z,1.30
2023-02-03T10:52:32.297Z,5.90
2023-02-03T10:55:05.622Z,1.65
2023-02-03T10:57:37.141Z,2.12
2023-02-03T11:00:22.482Z,1.27
2023-02-03T11:02:57.871Z,0.77
2023-02-03T11:05:26.441Z,1.08
2023-02-03T11:07:55.658Z,0.82
2023-02-03T11:10:29.729Z,0.65
2023-02-03T11:13:19.362Z,0.62
2023-02-03T11:16:00.978Z,0.68
2023-02-03T11:18:44.737Z,0.68
2023-02-03T11:21:21.251Z,0.52
2023-02-03T11:24:10.473Z,0.30
2023-02-03T11:26:42.774Z,0.20
2023-02-03T11:29:18.923Z,0.10
2023-02-03T11:31:54.689Z,0.05
2023-02-03T11:34:28.403Z,0.20
2023-02-03T11:36:56.784Z,0.40
2023-02-03T11:39:35.473Z,0.20
2023-02-03T11:42:03.669Z,1.92
2023-02-03T11:44:33.639Z,1.60
2023-02-03T11:47:05.780Z,0.68
2023-02-03T11:49:56.113Z,0.40
2023-02-03T11:52:42.629Z,0.80
2023-02-03T11:55:23.715Z,1.75
2023-02-03T11:58:04.675Z,2.30
2023-02-03T12:00:40.553Z,1.10
2023-02-03T12:03:54.695Z,0.85
2023-02-03T12:06:35.429Z,3.87
2023-02-03T12:09:17.904Z,1.65
2023-02-03T12:12:05.894Z,2.05
2023-02-03T12:14:49.118Z,2.58
2023-02-03T12:17:42.634Z,0.93
2023-02-03T12:20:27.404Z,0.88
2023-02-03T12:23:04.911Z,1.85
2023-02-03T12:25:44.293Z,3.75
2023-02-03T12:28:33.295Z,1.37
2023-02-03T12:31:12.814Z,1.55
2023-02-03T12:33:45.192Z,1.27
2023-02-03T12:36:19.913Z,6.55
2023-02-03T12:38:52.506Z,5.43
2023-02-03T12:41:26.307Z,3.58
2023-02-03T12:44:00.726Z,2.08
2023-02-03T12:46:32.125Z,1.83
2023-02-03T12:49:05.910Z,1.70
2023-02-03T12:51:42.274Z,7.65
2023-02-03T12:54:22.651Z,5.20
2023-02-03T12:56:54.890Z,3.72
2023-02-03T12:59:26.843Z,2.10
2023-02-03T13:01:59.880Z,2.15
2023-02-03T13:04:36.729Z,3.67
2023-02-03T13:07:13.893Z,3.85
2023-02-03T13:09:49.233Z,2.28
2023-02-03T13:12:28.171Z,6.10
2023-02-03T13:15:05.755Z,5.18
2023-02-03T13:17:43.178Z,6.03
2023-02-03T13:20:18.170Z,5.75
2023-02-03T13:22:48.017Z,3.95
2023-02-03T13:25:23.572Z,2.20
2023-02-03T13:28:03.685Z,8.32
2023-02-03T13:30:46.979Z,9.13
2023-02-03T13:33:43.160Z,7.30
2023-02-03T13:36:37.294Z,4.85
2023-02-03T13:39:34.165Z,9.32
2023-02-03T13:42:19.552Z,4.53
2023-02-03T13:44:52.187Z,6.43
2023-02-03T13:47:23.649Z,6.97
2023-02-03T13:49:55.814Z,5.25
2023-02-03T13:52:30.574Z,5.50
2023-02-03T13:55:01.154Z,2.58
2023-02-03T13:57:35.545Z,6.43
2023-02-03T14:00:07.239Z,7.55
2023-02-03T14:02:44.757Z,4.03
2023-02-03T14:05:48.949Z,2.30
2023-02-03T14:08:49.363Z,3.58
2023-02-03T14:11:42.126Z,3.22
2023-02-03T14:14:46.107Z,5.22
2023-02-03T14:17:47.444Z,6.68
2023-02-03T14:20:47.895Z,3.62
2023-02-03T14:23:21.764Z,3.75
2023-02-03T14:25:53.464Z,3.87
2023-02-03T14:28:26.952Z,7.75
2023-02-03T14:31:12.627Z,6.37
2023-02-03T14:34:16.340Z,7.95
2023-02-03T14:36:53.017Z,3.85
2023-02-03T14:40:06.734Z,6.57
2023-02-03T14:43:24.266Z,5.62
2023-02-03T14:46:16.853Z,6.85
2023-02-03T14:48:57.286Z,6.32
2023-02-03T14:51:40.918Z,8.32
2023-02-03T14:54:24.943Z,7.97
2023-02-03T14:57:18.426Z,7.25
2023-02-03T14:59:49.667Z,5.18
2023-02-03T15:02:23.258Z,5.15
2023-02-03T15:04:51.568Z,7.75
2023-02-03T15:07:38.663Z,5.55
2023-02-03T15:10:15.050Z,10.77
2023-02-03T15:12:48.875Z,9.65
2023-02-03T15:15:22.473Z,11.25
2023-02-03T15:17:54.316Z,7.40
2023-02-03T15:20:33.646Z,7.60
2023-02-03T15:23:02.215Z,7.80
2023-02-03T15:25:33.020Z,4.07
2023-02-03T15:28:16.994Z,6.45
2023-02-03T15:30:45.566Z,5.87
2023-02-03T15:33:20.944Z,6.40
2023-02-03T15:35:51.708Z,6.45
2023-02-03T15:38:27.526Z,8.02
2023-02-03T15:40:58.807Z,10.90
2023-02-03T15:43:32.793Z,6.78
2023-02-03T15:46:08.799Z,10.55
2023-02-03T15:48:43.565Z,7.78
2023-02-03T15:51:16.509Z,9.55
2023-02-03T15:53:50.045Z,7.03
2023-02-03T15:56:26.350Z,7.30
2023-02-03T15:58:55.213Z,10.05
2023-02-03T16:01:26.746Z,3.20
2023-02-03T16:03:58.117Z,6.35
2023-02-03T16:06:30.633Z,6.35
2023-02-03T16:09:00.729Z,7.18
2023-02-03T16:11:34.446Z,8.35
2023-02-03T16:14:06.767Z,7.45
2023-02-03T16:16:39.107Z,12.43
2023-02-03T16:19:14.735Z,10.25
2023-02-03T16:21:54.345Z,8.52
2023-02-03T16:24:38.057Z,4.45
2023-02-03T16:27:23.575Z,5.07
2023-02-03T16:30:10.103Z,9.07
2023-02-03T16:32:56.103Z,4.43
2023-02-03T16:35:43.615Z,6.80
2023-02-03T16:38:34.372Z,10.73
2023-02-03T16:41:22.915Z,7.60
2023-02-03T16:44:08.492Z,4.62
2023-02-03T16:46:55.929Z,3.95
2023-02-03T16:49:41.506Z,10.18
2023-02-03T16:52:12.230Z,5.47
2023-02-03T16:54:40.115Z,6.85
2023-02-03T16:57:08.711Z,4.35
2023-02-03T16:59:36.932Z,6.20
2023-02-03T17:02:04.950Z,6.47
2023-02-03T17:04:33.887Z,4.85
2023-02-03T17:07:05.157Z,7.47
2023-02-03T17:09:35.474Z,6.47
2023-02-03T17:12:04.342Z,4.25
2023-02-03T17:14:32.300Z,6.82
2023-02-03T17:17:00.370Z,7.62
2023-02-03T17:19:28.659Z,6.95
2023-02-03T17:21:56.688Z,8.25
2023-02-03T17:24:24.746Z,10.20
2023-02-03T17:26:55.277Z,9.40
2023-02-03T17:29:24.220Z,4.47
2023-02-03T17:31:52.511Z,5.53
2023-02-03T17:34:20.611Z,4.20
2023-02-03T17:36:48.878Z,5.37
2023-02-03T17:55:39.879Z,13.57
2023-02-03T17:58:09.458Z,4.57
2023-02-03T18:00:37.766Z,14.18
2023-02-03T18:03:06.027Z,3.28
2023-02-03T18:05:35.430Z,10.52
2023-02-03T18:08:09.252Z,5.75
2023-02-03T18:10:45.403Z,3.92
2023-02-03T18:13:14.944Z,5.45
2023-02-03T18:15:42.923Z,9.73
2023-02-03T18:18:11.553Z,7.68
2023-02-03T18:20:39.686Z,5.40
2023-02-03T18:23:07.717Z,8.05
2023-02-03T18:25:36.396Z,10.32
2023-02-03T18:28:04.710Z,10.73
2023-02-03T18:30:34.531Z,8.68
2023-02-03T18:33:03.955Z,10.77
2023-02-03T18:35:34.341Z,4.07
2023-02-03T18:38:02.871Z,7.40
2023-02-03T18:40:31.884Z,5.60
2023-02-03T18:43:00.216Z,5.72
2023-02-03T18:45:29.069Z,9.43
2023-02-03T18:47:58.452Z,13.95
2023-02-03T18:50:26.628Z,8.70
2023-02-03T18:52:55.541Z,5.45
2023-02-03T18:55:24.142Z,9.65
2023-02-03T18:57:52.165Z,6.30
2023-02-03T19:00:21.163Z,10.20
2023-02-03T19:02:51.078Z,9.68
2023-02-03T19:05:20.751Z,8.23
2023-02-03T19:07:49.303Z,8.93
2023-02-03T19:10:17.968Z,7.00
2023-02-03T19:12:45.960Z,11.38
2023-02-03T19:15:14.455Z,9.18
2023-02-03T19:17:42.525Z,9.20
2023-02-03T19:20:11.883Z,10.15
2023-02-03T19:22:41.666Z,10.75
2023-02-03T19:25:09.953Z,11.65
2023-02-03T19:27:38.051Z,6.00
2023-02-03T19:30:06.894Z,8.73
2023-02-03T19:32:35.161Z,11.32
2023-02-03T19:35:03.220Z,6.05
2023-02-03T19:37:31.601Z,8.85
2023-02-03T19:40:01.073Z,11.23
2023-02-03T19:42:30.760Z,8.55
2023-02-03T19:44:59.147Z,10.15
2023-02-03T19:47:27.417Z,6.68
2023-02-03T19:49:55.538Z,12.75
2023-02-03T19:52:23.814Z,11.77
2023-02-03T19:54:53.824Z,15.35
2023-02-03T19:57:23.400Z,8.23
2023-02-03T19:59:51.639Z,10.32
2023-02-03T20:02:20.147Z,6.57
2023-02-03T20:04:50.019Z,3.97
2023-02-03T20:07:18.890Z,7.75
2023-02-03T20:09:47.695Z,6.97
2023-02-03T20:12:16.056Z,8.40
2023-02-03T20:14:45.478Z,12.50
2023-02-03T20:17:13.457Z,5.07
2023-02-03T20:19:41.633Z,4.80
2023-02-03T20:22:09.715Z,6.60
2023-02-03T20:24:37.729Z,6.47
2023-02-03T20:27:06.082Z,7.75
2023-02-03T20:29:34.241Z,9.65
2023-02-03T20:32:04.546Z,6.20
2023-02-03T20:34:32.820Z,8.50
2023-02-03T20:37:01.486Z,6.47
2023-02-03T20:39:29.785Z,6.87
2023-02-03T20:41:58.008Z,6.22
2023-02-03T20:44:26.107Z,8.70
2023-02-03T20:46:55.806Z,16.05
2023-02-03T20:49:25.921Z,4.57
2023-02-03T20:51:54.013Z,5.72
2023-02-03T20:54:23.120Z,7.75
2023-02-03T20:56:51.530Z,8.98
2023-02-03T20:59:20.801Z,11.20
2023-02-03T21:01:50.610Z,4.68
2023-02-03T21:04:37.686Z,4.53
2023-02-03T21:07:14.563Z,5.03
2023-02-03T21:09:43.012Z,9.35
2023-02-03T21:12:12.903Z,9.98
2023-02-03T21:14:43.565Z,5.40
2023-02-03T21:17:20.412Z,11.30
2023-02-03T21:19:48.896Z,6.03
2023-02-03T21:22:22.982Z,7.03
2023-02-03T21:24:53.157Z,3.00
2023-02-03T21:27:25.945Z,6.00
2023-02-03T21:29:56.691Z,6.70
2023-02-03T21:32:26.995Z,7.55
2023-02-03T21:34:55.190Z,9.30
2023-02-03T21:37:42.290Z,5.03
2023-02-03T21:40:21.136Z,5.20
2023-02-03T21:42:49.615Z,7.05
2023-02-03T21:45:35.362Z,8.75
2023-02-03T21:48:24.968Z,6.60
2023-02-03T21:50:54.087Z,5.22
2023-02-03T21:53:29.454Z,7.72
2023-02-03T21:56:00.517Z,7.70
2023-02-03T21:58:30.881Z,4.93
2023-02-03T22:01:00.757Z,4.18
2023-02-03T22:03:30.791Z,7.18
2023-02-03T22:06:16.061Z,3.87
2023-02-03T22:08:47.628Z,3.03
2023-02-03T22:11:17.433Z,8.45
2023-02-03T22:13:46.246Z,5.93
2023-02-03T22:16:17.076Z,8.07
2023-02-03T22:18:45.978Z,7.75
2023-02-03T22:21:14.587Z,7.28
2023-02-03T22:23:43.380Z,5.15
2023-02-03T22:26:14.550Z,7.82
2023-02-03T22:28:43.083Z,9.68
2023-02-03T22:31:13.115Z,4.70
2023-02-03T22:33:42.504Z,6.07
2023-02-03T22:36:11.658Z,6.20
2023-02-03T22:38:41.107Z,8.63
2023-02-03T22:41:11.876Z,5.60
2023-02-03T22:43:42.096Z,7.00
2023-02-03T22:46:10.233Z,5.18
2023-02-03T22:48:40.277Z,5.03
2023-02-03T22:51:08.605Z,6.90
2023-02-03T22:53:36.789Z,6.97
2023-02-03T22:56:05.245Z,13.27
2023-02-03T22:58:33.568Z,6.22
2023-02-03T23:01:03.053Z,5.95
2023-02-03T23:03:32.674Z,7.20
2023-02-03T23:06:04.646Z,4.80
2023-02-03T23:08:32.867Z,4.80
2023-02-03T23:11:00.950Z,6.22
2023-02-03T23:13:29.335Z,7.10
2023-02-03T23:15:57.698Z,5.87
2023-02-03T23:18:27.536Z,5.53
2023-02-03T23:20:55.975Z,2.05
2023-02-03T23:23:24.148Z,8.80
2023-02-03T23:25:52.350Z,6.00
2023-02-03T23:28:20.814Z,6.28
2023-02-03T23:30:49.136Z,9.40
2023-02-03T23:33:17.250Z,1.15
2023-02-03T23:35:46.110Z,0.80
2023-02-03T23:38:14.867Z,0.50
2023-02-03T23:40:43.367Z,1.55
2023-02-03T23:43:11.906Z,0.37
2023-02-03T23:45:44.261Z,0.43
2023-02-03T23:48:13.245Z,1.35
2023-02-03T23:50:41.544Z,0.20
2023-02-03T23:53:11.154Z,0.77
2023-02-03T23:55:39.453Z,0.70
2023-02-03T23:58:07.414Z,0.65
